Time;durP1;ratioP1;P1;durP2;ratioP2;P2;SDS_P1;SDS_P2;PMS_P1;PMS_P2;Temp;Humidity;BMP_temperature;BMP_pressure;BME280_temperature;BME280_humidity;BME280_pressure;Samples;Min_cycle;Max_cycle;Signal;HPM_P1;HPM_P2
2022/01/21 00:01:42;;;;;;;2.85;1.40;;;;;;;-0.62;67.37;100821.75;1754995;80;25792;-61
2022/01/21 00:04:11;;;;;;;3.30;1.87;;;;;;;-0.66;68.09;100831.59;1782128;78;26086;-62
2022/01/21 00:06:40;;;;;;;9.65;2.20;;;;;;;-0.68;67.52;100829.94;1775292;80;25801;-60
2022/01/21 00:09:08;;;;;;;3.12;1.90;;;;;;;-0.72;68.51;100846.38;1774669;80;27654;-62
2022/01/21 00:11:39;;;;;;;7.58;2.00;;;;;;;-0.75;69.17;100846.97;1775531;80;25856;-62
2022/01/21 00:14:06;;;;;;;4.65;2.37;;;;;;;-0.80;69.15;100851.96;1774995;80;25852;-60
2022/01/21 00:16:35;;;;;;;4.28;2.00;;;;;;;-0.84;69.65;100855.66;1775115;80;26097;-61
2022/01/21 00:19:15;;;;;;;2.92;1.80;;;;;;;-0.86;69.48;100852.69;1775235;80;25833;-61
2022/01/21 00:32:41;;;;;;;5.42;2.00;;;;;;;-1.00;70.50;100900.29;1749935;82;25719;-61
2022/01/21 00:35:09;;;;;;;5.10;2.60;;;;;;;-1.06;70.54;100914.17;1766847;79;27440;-61
2022/01/21 00:37:38;;;;;;;7.53;2.08;;;;;;;-1.13;70.72;100912.25;1770883;81;25730;-60
2022/01/21 00:40:10;;;;;;;4.70;2.70;;;;;;;-1.16;71.45;100919.80;1770977;81;25776;-61
2022/01/21 00:45:11;;;;;;;5.20;2.67;;;;;;;-1.19;71.00;100921.70;1802606;79;25765;-61
2022/01/21 00:47:36;;;;;;;4.03;2.72;;;;;;;-1.15;70.46;100935.20;1802236;79;27555;-60
2022/01/21 00:50:05;;;;;;;5.70;2.98;;;;;;;-1.08;71.08;100939.80;1802559;79;25697;-60
2022/01/21 00:52:32;;;;;;;13.53;4.42;;;;;;;-1.06;71.06;100944.54;1802640;79;25725;-61
2022/01/21 00:54:59;;;;;;;6.25;3.35;;;;;;;-1.09;71.36;100958.73;1802452;79;26113;-60
2022/01/21 00:57:26;;;;;;;6.47;3.30;;;;;;;-1.15;71.92;100958.96;1802498;79;25777;-61
2022/01/21 00:59:53;;;;;;;10.08;3.65;;;;;;;-1.14;71.16;100960.22;1802284;79;27014;-61
2022/01/21 01:02:20;;;;;;;7.60;3.83;;;;;;;-1.12;71.73;100950.47;1802315;77;25809;-61
2022/01/21 01:04:48;;;;;;;6.85;3.70;;;;;;;-1.14;71.75;100961.53;1802894;79;25796;-61
2022/01/21 01:07:15;;;;;;;5.90;3.62;;;;;;;-1.11;71.18;100960.11;1802081;77;26187;-61
2022/01/21 01:09:50;;;;;;;7.62;3.17;;;;;;;-1.00;71.61;100964.14;1802691;79;25730;-61
2022/01/21 01:12:28;;;;;;;7.45;3.87;;;;;;;-1.01;71.30;100942.13;1802020;79;29635;-61
2022/01/21 01:20:17;;;;;;;9.68;4.10;;;;;;;-0.80;70.56;100945.73;1802602;79;26145;-61
2022/01/21 01:22:53;;;;;;;3.80;2.87;;;;;;;-0.81;70.44;100937.41;1799873;79;25517;-61
2022/01/21 01:27:48;;;;;;;10.20;3.92;;;;;;;-0.95;70.95;100919.92;1767935;77;25976;-61
2022/01/21 01:30:20;;;;;;;5.87;2.80;;;;;;;-0.99;70.12;100924.94;1829702;78;25796;-61
2022/01/21 01:32:49;;;;;;;8.45;3.98;;;;;;;-0.93;70.09;100931.30;1830095;78;26072;-61
2022/01/21 01:35:20;;;;;;;9.38;4.53;;;;;;;-0.86;71.56;100925.33;1847208;76;25711;-61
2022/01/21 01:40:45;;;;;;;6.85;2.90;;;;;;;-0.80;70.47;100898.19;1853745;77;25760;-62
2022/01/21 01:50:59;;;;;;;7.37;3.70;;;;;;;-0.92;70.35;100878.00;1779919;80;27470;-61
2022/01/21 01:53:34;;;;;;;9.78;3.77;;;;;;;-0.86;70.45;100868.06;1779709;80;25475;-60
2022/01/21 01:56:05;;;;;;;7.45;4.05;;;;;;;-0.84;70.37;100872.83;1779741;80;25761;-61
2022/01/21 01:58:38;;;;;;;8.13;3.55;;;;;;;-0.82;70.03;100864.39;1779874;80;26189;-60
2022/01/21 02:01:05;;;;;;;6.92;3.30;;;;;;;-0.75;69.88;100882.63;1779948;80;25793;-60
2022/01/21 02:03:37;;;;;;;7.40;3.35;;;;;;;-0.75;69.87;100877.34;1780140;80;27421;-61
2022/01/21 02:06:05;;;;;;;4.33;3.05;;;;;;;-0.75;69.63;100875.55;1779660;80;25757;-61
2022/01/21 02:08:34;;;;;;;8.90;3.27;;;;;;;-0.72;69.43;100878.08;1780053;80;25816;-61
2022/01/21 02:11:01;;;;;;;6.50;3.40;;;;;;;-0.70;69.18;100886.81;1780090;80;26043;-61
2022/01/21 02:13:34;;;;;;;6.92;3.90;;;;;;;-0.66;69.11;100888.40;1779792;80;25906;-61
2022/01/21 02:16:14;;;;;;;5.40;3.98;;;;;;;-0.62;68.92;100885.17;1779883;80;27052;-61
2022/01/21 02:21:35;;;;;;;6.75;3.40;;;;;;;-0.57;68.27;100892.47;1779747;80;25742;-61
2022/01/21 02:24:09;;;;;;;6.60;3.60;;;;;;;-0.59;68.03;100894.78;1801772;77;26156;-61
2022/01/21 02:26:36;;;;;;;9.40;3.50;;;;;;;-0.60;67.95;100885.13;1808836;77;25708;-61
2022/01/21 02:29:06;;;;;;;8.73;3.12;;;;;;;-0.58;67.89;100894.70;1756725;80;27454;-61
2022/01/21 02:31:38;;;;;;;8.68;3.90;;;;;;;-0.57;67.64;100895.55;1748206;81;25907;-61
2022/01/21 02:34:09;;;;;;;9.95;4.25;;;;;;;-0.62;67.51;100901.50;1747840;81;25806;-62
2022/01/21 02:36:37;;;;;;;12.95;4.80;;;;;;;-0.72;67.38;100901.86;1713119;83;26131;-61
2022/01/21 02:39:05;;;;;;;8.63;4.17;;;;;;;-0.81;67.25;100903.06;1713471;82;25794;-61
2022/01/21 02:41:32;;;;;;;6.03;3.62;;;;;;;-0.86;67.31;100897.12;1685049;83;27449;-61
2022/01/21 02:43:59;;;;;;;6.55;3.77;;;;;;;-0.91;67.83;100891.17;1745110;82;27223;-62
2022/01/21 02:46:27;;;;;;;6.25;3.50;;;;;;;-1.03;68.52;100896.44;1744861;82;25840;-61
2022/01/21 02:49:02;;;;;;;10.80;4.22;;;;;;;-1.17;68.40;100897.43;1744733;82;26095;-61
2022/01/21 02:51:33;;;;;;;8.80;3.62;;;;;;;-1.26;68.60;100902.61;1719812;82;25495;-60
2022/01/21 02:54:06;;;;;;;5.97;3.58;;;;;;;-1.35;69.20;100901.63;1752856;81;27477;-61
2022/01/21 02:56:36;;;;;;;6.30;3.55;;;;;;;-1.46;69.54;100899.36;1753018;81;25743;-61
2022/01/21 02:59:06;;;;;;;8.60;4.30;;;;;;;-1.55;69.90;100899.25;1730871;81;25778;-61
2022/01/21 03:01:35;;;;;;;7.83;4.08;;;;;;;-1.66;70.69;100894.34;1729271;82;26653;-61
2022/01/21 03:04:05;;;;;;;7.10;3.67;;;;;;;-1.75;70.70;100892.06;1706258;82;25738;-61
2022/01/21 03:06:35;;;;;;;9.83;3.98;;;;;;;-1.84;70.67;100892.38;1744633;82;27522;-61
2022/01/21 03:09:05;;;;;;;9.33;4.00;;;;;;;-1.92;70.39;100901.87;1745350;82;25761;-60
2022/01/21 03:11:33;;;;;;;9.13;4.12;;;;;;;-2.01;69.87;100901.72;1745290;81;25802;-60
2022/01/21 03:14:01;;;;;;;5.50;3.80;;;;;;;-2.06;70.05;100909.78;1745365;82;26757;-63
2022/01/21 03:16:34;;;;;;;6.47;3.62;;;;;;;-2.14;70.10;100918.87;1745148;82;25757;-62
2022/01/21 03:19:01;;;;;;;9.95;4.10;;;;;;;-2.22;70.00;100913.41;1745466;82;27477;-61
2022/01/21 03:21:28;;;;;;;8.50;5.47;;;;;;;-2.21;70.13;100912.94;1745162;82;25735;-61
2022/01/21 03:23:56;;;;;;;8.25;4.40;;;;;;;-2.22;70.22;100912.09;1754872;80;25671;-60
2022/01/21 03:26:26;;;;;;;7.22;4.55;;;;;;;-2.20;70.26;100912.88;1776197;80;26106;-61
2022/01/21 03:29:00;;;;;;;7.25;3.75;;;;;;;-2.22;70.16;100912.09;1776779;80;25922;-61
2022/01/21 03:31:30;;;;;;;7.97;3.75;;;;;;;-2.20;70.02;100912.03;1776435;80;27464;-61
2022/01/21 03:33:59;;;;;;;10.38;5.75;;;;;;;-2.20;69.77;100916.83;1776664;80;25682;-61
2022/01/21 03:36:29;;;;;;;12.58;3.90;;;;;;;-2.16;69.75;100928.16;1839905;77;25727;-61
2022/01/21 03:38:57;;;;;;;10.72;4.70;;;;;;;-2.14;69.45;100918.87;1845071;77;25736;-61
2022/01/21 03:41:27;;;;;;;13.03;4.40;;;;;;;-2.14;69.12;100921.51;1845199;77;25714;-61
2022/01/21 03:43:53;;;;;;;10.18;4.78;;;;;;;-2.13;69.05;100924.55;1807824;79;27536;-61
2022/01/21 03:46:22;;;;;;;8.83;4.97;;;;;;;-2.13;68.73;100920.60;1807721;77;25664;-61
2022/01/21 03:48:51;;;;;;;14.58;4.67;;;;;;;-2.14;68.56;100924.14;1807923;79;25713;-60
2022/01/21 03:51:22;;;;;;;10.13;4.12;;;;;;;-2.20;68.16;100921.25;1807736;79;26132;-61
2022/01/21 03:53:50;;;;;;;8.65;4.42;;;;;;;-2.26;68.27;100924.10;1806837;77;25458;-60
2022/01/21 03:56:17;;;;;;;11.48;4.70;;;;;;;-2.26;68.19;100933.33;1807760;77;27498;-60
2022/01/21 03:58:44;;;;;;;10.15;4.55;;;;;;;-2.29;68.12;100932.09;1807932;77;25695;-60
2022/01/21 04:01:13;;;;;;;7.55;4.08;;;;;;;-2.32;67.68;100933.06;1808257;78;25982;-60
2022/01/21 04:03:40;;;;;;;6.85;4.00;;;;;;;-2.40;67.28;100933.77;1807643;78;26146;-60
2022/01/21 04:06:07;;;;;;;14.03;5.17;;;;;;;-2.46;67.28;100941.41;1807748;77;25750;-61
2022/01/21 04:08:35;;;;;;;12.18;6.08;;;;;;;-2.56;66.87;100944.80;1808111;77;27370;-61
2022/01/21 04:11:04;;;;;;;13.43;5.55;;;;;;;-2.68;67.50;100949.97;1807634;79;25761;-61
2022/01/21 04:13:35;;;;;;;9.53;5.28;;;;;;;-2.76;67.61;100944.54;1807901;77;25718;-61
2022/01/21 04:16:06;;;;;;;30.05;5.50;;;;;;;-2.81;68.32;100944.68;1783286;79;26749;-60
2022/01/21 04:18:34;;;;;;;9.30;5.05;;;;;;;-2.85;68.54;100951.81;1807600;79;25767;-62
2022/01/21 04:21:03;;;;;;;10.05;5.08;;;;;;;-2.87;68.62;100949.67;1807385;79;27535;-62
2022/01/21 04:23:32;;;;;;;12.60;5.28;;;;;;;-2.87;68.48;100953.62;1802451;78;25762;-61
2022/01/21 04:25:59;;;;;;;12.15;4.70;;;;;;;-2.89;68.32;100952.80;1797564;79;25515;-61
2022/01/21 04:28:29;;;;;;;9.88;4.05;;;;;;;-2.91;68.19;100960.34;1792911;79;26152;-61
2022/01/21 04:30:59;;;;;;;9.15;4.37;;;;;;;-2.96;67.92;100961.79;1784708;80;25903;-61
2022/01/21 04:33:28;;;;;;;11.10;5.03;;;;;;;-3.03;67.99;100968.14;1783758;80;28066;-61
2022/01/21 04:35:59;;;;;;;8.98;4.30;;;;;;;-3.12;68.02;100963.14;1744803;81;25471;-61
2022/01/21 04:38:28;;;;;;;6.80;4.50;;;;;;;-3.19;68.04;100962.02;1745242;82;25732;-61
2022/01/21 04:41:17;;;;;;;11.55;6.05;;;;;;;-3.25;68.08;100958.69;1755504;78;26152;-61
2022/01/21 04:49:55;;;;;;;8.20;5.20;;;;;;;-3.22;66.95;100964.72;1816177;77;25809;-63
2022/01/21 04:52:53;;;;;;;10.32;5.05;;;;;;;-3.34;66.92;100971.19;1793592;77;25882;-62
2022/01/21 04:55:31;;;;;;;9.55;4.70;;;;;;;-3.35;67.11;100969.90;1697112;83;25799;-61
2022/01/21 04:58:36;;;;;;;;;;;;;;;-3.33;67.35;100974.23;1667942;83;25836;-62
2022/01/21 05:01:04;;;;;;;9.80;4.90;;;;;;;-3.30;67.48;100978.55;1682504;83;26195;-63
2022/01/21 05:03:51;;;;;;;13.28;4.75;;;;;;;-3.31;67.21;100977.66;1619575;83;25855;-61
2022/01/21 05:06:34;;;;;;;8.83;3.90;;;;;;;-3.35;66.77;100976.05;1676857;84;25922;-62
2022/01/21 05:09:28;;;;;;;;;;;;;;;;;;;;;
2022/01/21 05:12:12;;;;;;;9.18;5.00;;;;;;;-3.55;66.11;100980.97;1615975;86;25800;-62
2022/01/21 05:17:31;;;;;;;7.20;4.22;;;;;;;-3.75;65.83;100985.44;1611804;88;25802;-61
2022/01/21 05:19:58;;;;;;;12.60;5.28;;;;;;;-3.85;65.70;100981.73;1683827;84;25981;-61
2022/01/21 05:22:27;;;;;;;9.93;4.40;;;;;;;-3.93;66.08;100990.27;1747105;82;25784;-61
2022/01/21 05:24:54;;;;;;;10.13;5.30;;;;;;;-3.98;66.39;100994.31;1745820;81;25769;-62
2022/01/21 05:27:21;;;;;;;11.75;5.17;;;;;;;-4.01;66.38;100989.13;1746158;82;27421;-61
2022/01/21 05:29:53;;;;;;;15.63;5.15;;;;;;;-3.99;66.25;100992.59;1673936;85;25912;-61
2022/01/21 05:32:26;;;;;;;13.20;5.80;;;;;;;-3.99;66.33;100995.68;1708658;83;25807;-61
2022/01/21 05:35:05;;;;;;;9.95;4.70;;;;;;;-3.97;66.31;101006.56;1652841;82;26097;-61
2022/01/21 05:37:50;;;;;;;8.63;4.33;;;;;;;-3.95;66.18;101003.88;1708698;83;25674;-61
2022/01/21 05:40:29;;;;;;;13.93;5.15;;;;;;;-3.97;66.02;101009.63;1707949;83;27475;-59
2022/01/21 05:42:59;;;;;;;7.45;4.58;;;;;;;-3.97;65.90;101013.13;1693533;84;25881;-59
2022/01/21 05:48:38;;;;;;;11.90;3.92;;;;;;;-3.93;65.60;101022.66;1695072;84;28264;-60
2022/01/21 05:51:23;;;;;;;9.60;4.42;;;;;;;-3.93;65.29;101018.70;1711145;79;25823;-61
2022/01/21 05:53:58;;;;;;;11.22;5.10;;;;;;;-3.94;64.90;101035.38;1783672;80;28835;-61
2022/01/21 05:56:37;;;;;;;10.58;4.75;;;;;;;-3.94;64.76;101042.41;1686696;85;25781;-60
2022/01/21 05:59:07;;;;;;;13.05;5.00;;;;;;;-3.95;64.48;101048.13;1785202;80;25646;-61
2022/01/21 06:01:39;;;;;;;12.00;5.72;;;;;;;-3.97;64.18;101045.98;1784824;80;26148;-61
2022/01/21 06:04:07;;;;;;;10.65;5.40;;;;;;;-3.98;63.99;101043.37;1785261;80;25746;-61
2022/01/21 06:06:36;;;;;;;18.17;4.95;;;;;;;-4.01;63.75;101045.62;1784900;80;27448;-61
2022/01/21 06:09:07;;;;;;;10.03;4.78;;;;;;;-4.00;63.70;101052.62;1785065;80;25874;-61
2022/01/21 06:11:36;;;;;;;17.98;4.87;;;;;;;-3.98;63.17;101059.14;1784906;80;25782;-61
2022/01/21 06:14:04;;;;;;;17.90;4.03;;;;;;;-3.98;63.02;101052.14;1784844;80;26126;-61
2022/01/21 06:16:31;;;;;;;7.50;4.22;;;;;;;-3.96;62.88;101059.55;1784850;80;25773;-61
2022/01/21 06:18:58;;;;;;;8.30;4.65;;;;;;;-3.94;62.93;101068.23;1784943;80;28197;-61
2022/01/21 06:21:24;;;;;;;9.63;5.37;;;;;;;-3.88;62.52;101071.63;1784532;80;25766;-61
2022/01/21 06:23:51;;;;;;;12.05;5.37;;;;;;;-3.82;62.40;101079.36;1800963;77;25884;-61
2022/01/21 06:26:19;;;;;;;13.00;4.70;;;;;;;-3.77;62.31;101078.36;1802765;79;26727;-61
2022/01/21 06:28:45;;;;;;;12.68;5.30;;;;;;;-3.70;62.16;101079.52;1751682;80;25719;-61
2022/01/21 06:31:14;;;;;;;6.50;4.25;;;;;;;-3.59;62.66;101072.70;1810086;79;28209;-61
2022/01/21 06:33:41;;;;;;;12.88;5.55;;;;;;;-3.44;62.92;101071.42;1810001;79;25828;-61
2022/01/21 06:36:09;;;;;;;17.73;5.92;;;;;;;-3.29;62.96;101071.05;1808709;78;25836;-61
2022/01/21 06:38:36;;;;;;;12.73;6.00;;;;;;;-3.18;62.75;101078.18;1806377;79;26098;-61
2022/01/21 06:41:03;;;;;;;13.05;5.50;;;;;;;-3.04;62.96;101067.28;1808450;77;25748;-63
2022/01/21 06:43:33;;;;;;;22.48;6.22;;;;;;;-2.93;62.47;101070.97;1774904;80;27454;-62
2022/01/21 06:46:00;;;;;;;11.60;5.55;;;;;;;-2.87;61.85;101075.20;1813706;79;27213;-62
2022/01/21 06:48:27;;;;;;;13.70;6.33;;;;;;;-2.87;60.42;101088.36;1775032;79;25732;-61
2022/01/21 06:50:54;;;;;;;12.85;5.70;;;;;;;-2.97;59.39;101084.25;1813673;77;26104;-61
2022/01/21 06:53:22;;;;;;;14.60;5.22;;;;;;;-3.05;59.33;101087.08;1813803;79;25780;-62
2022/01/21 06:55:49;;;;;;;11.75;5.22;;;;;;;-3.07;59.30;101087.13;1813949;79;27457;-62
2022/01/21 06:58:16;;;;;;;11.10;4.95;;;;;;;-3.07;59.41;101084.50;1799532;79;25697;-61
2022/01/21 07:00:43;;;;;;;11.50;5.70;;;;;;;-3.02;59.21;101083.91;1789293;77;25785;-63
2022/01/21 07:03:10;;;;;;;11.90;5.90;;;;;;;-2.98;58.63;101082.05;1775706;80;26725;-64
2022/01/21 07:05:37;;;;;;;8.20;4.65;;;;;;;-2.92;58.22;101077.08;1775417;79;25797;-63
2022/01/21 07:08:05;;;;;;;11.03;4.50;;;;;;;-2.87;57.61;101086.58;1738481;82;27491;-62
2022/01/21 07:10:34;;;;;;;11.40;4.47;;;;;;;-2.81;57.07;101080.72;1776003;80;25873;-63
2022/01/21 07:13:01;;;;;;;9.35;4.62;;;;;;;-2.75;56.43;101083.20;1775614;80;25746;-63
2022/01/21 07:15:29;;;;;;;22.35;10.68;;;;;;;-2.68;56.76;101089.55;1775737;80;26084;-63
2022/01/21 07:17:56;;;;;;;8.75;4.40;;;;;;;-2.62;55.90;101095.10;1812731;77;25822;-66
2022/01/21 07:20:25;;;;;;;10.13;4.33;;;;;;;-2.59;55.31;101091.51;1814132;78;27463;-66
2022/01/21 07:22:52;;;;;;;9.18;4.50;;;;;;;-2.53;55.30;101096.16;1813378;77;27176;-64
2022/01/21 07:25:19;;;;;;;13.43;5.10;;;;;;;-2.48;55.39;101097.80;1816728;78;25782;-62
2022/01/21 07:27:46;;;;;;;9.55;5.00;;;;;;;-2.37;55.51;101091.31;1770675;79;26033;-63
2022/01/21 07:30:14;;;;;;;12.75;5.12;;;;;;;-2.29;55.18;101102.95;1747591;81;27349;-64
2022/01/21 07:32:43;;;;;;;22.98;6.35;;;;;;;-2.25;54.03;101110.31;1813871;79;28072;-63
2022/01/21 07:35:12;;;;;;;8.93;4.28;;;;;;;-2.22;54.21;101104.92;1813796;79;25673;-62
2022/01/21 07:37:42;;;;;;;10.32;4.83;;;;;;;-2.19;53.59;101107.48;1801922;79;25724;-63
2022/01/21 07:40:11;;;;;;;11.97;5.50;;;;;;;-2.17;53.48;101101.72;1799400;79;26098;-62
2022/01/21 07:42:38;;;;;;;9.15;5.00;;;;;;;-2.10;53.25;101103.25;1807162;78;25732;-62
2022/01/21 07:45:06;;;;;;;11.63;5.08;;;;;;;-2.05;53.41;101102.64;1807817;79;27463;-62
2022/01/21 07:47:33;;;;;;;15.80;5.90;;;;;;;-2.00;52.80;101110.88;1807903;78;25822;-62
2022/01/21 07:50:02;;;;;;;16.25;6.08;;;;;;;-1.96;52.53;101098.88;1807651;79;25775;-62
2022/01/21 07:52:29;;;;;;;22.65;6.28;;;;;;;-1.90;52.73;101106.58;1807753;78;25959;-62
2022/01/21 07:54:56;;;;;;;11.38;4.85;;;;;;;-1.81;52.73;101108.52;1807817;79;25716;-62
2022/01/21 07:57:23;;;;;;;10.93;5.65;;;;;;;-1.77;51.21;101114.97;1807944;77;27511;-62
2022/01/21 07:59:51;;;;;;;10.93;4.83;;;;;;;-1.71;51.76;101113.91;1807374;77;25734;-62
2022/01/21 08:02:23;;;;;;;14.18;4.97;;;;;;;-1.61;51.69;101119.30;1807753;78;25760;-62
2022/01/21 08:04:50;;;;;;;9.75;5.22;;;;;;;-1.51;50.94;101120.33;1807490;77;26091;-62
2022/01/21 08:07:18;;;;;;;10.80;4.90;;;;;;;-1.38;50.98;101124.27;1781907;79;25818;-62
2022/01/21 08:09:49;;;;;;;11.93;4.85;;;;;;;-1.30;50.17;101137.23;1778318;79;27527;-62
2022/01/21 08:12:18;;;;;;;9.20;4.60;;;;;;;-1.19;49.99;101133.78;1778503;80;26282;-62
2022/01/21 08:14:46;;;;;;;10.43;5.72;;;;;;;-1.06;49.50;101136.86;1777618;80;25835;-62
2022/01/21 08:17:13;;;;;;;12.35;5.85;;;;;;;-1.00;49.22;101136.64;1777648;80;26369;-62
2022/01/21 08:19:40;;;;;;;12.68;5.35;;;;;;;-0.96;48.56;101134.75;1776470;79;25723;-62
2022/01/21 08:22:07;;;;;;;15.45;6.90;;;;;;;-0.88;48.38;101141.95;1776154;79;28604;-63
2022/01/21 08:24:33;;;;;;;16.60;6.37;;;;;;;-0.79;48.49;101144.74;1793426;78;25730;-62
2022/01/21 08:27:02;;;;;;;14.20;6.78;;;;;;;-0.76;46.95;101144.61;1778409;79;25802;-62
2022/01/21 08:29:29;;;;;;;13.53;5.90;;;;;;;-0.69;46.57;101145.27;1768299;80;26113;-62
2022/01/21 08:31:56;;;;;;;14.78;5.58;;;;;;;-0.63;46.07;101141.11;1732782;81;25838;-61
2022/01/21 08:34:24;;;;;;;13.83;6.33;;;;;;;-0.46;45.83;101138.30;1766989;81;27866;-62
2022/01/21 08:36:54;;;;;;;16.95;6.05;;;;;;;-0.38;45.28;101135.77;1755459;79;25755;-62
2022/01/21 08:39:20;;;;;;;11.15;5.92;;;;;;;-0.27;44.76;101137.15;1807706;78;25692;-62
2022/01/21 08:41:48;;;;;;;14.05;5.67;;;;;;;-0.16;45.46;101142.91;1822253;77;26555;-62
2022/01/21 08:44:17;;;;;;;13.43;5.78;;;;;;;-0.06;44.54;101142.08;1795922;79;25501;-62
2022/01/21 08:46:44;;;;;;;13.00;6.08;;;;;;;0.05;44.39;101139.89;1795458;79;27602;-63
2022/01/21 08:49:11;;;;;;;15.68;5.95;;;;;;;0.20;44.01;101142.85;1752056;81;25482;-62
2022/01/21 08:51:57;;;;;;;15.03;5.80;;;;;;;0.46;43.76;101136.53;1769413;80;25858;-62
2022/01/21 08:54:10;;;;;;;14.73;5.67;;;;;;;0.91;43.54;101135.55;1804320;77;26155;-64
2022/01/21 08:56:37;;;;;;;13.05;6.20;;;;;;;1.69;41.99;101127.73;1808301;79;25721;-63
2022/01/21 08:59:04;;;;;;;15.32;7.08;;;;;;;2.60;41.16;101127.00;1807885;79;27476;-63
2022/01/21 09:01:30;;;;;;;12.60;6.28;;;;;;;3.27;38.83;101128.02;1807822;79;25786;-63
2022/01/21 09:03:57;;;;;;;12.33;6.87;;;;;;;3.74;37.61;101126.91;1807938;79;25527;-62
2022/01/21 09:06:28;;;;;;;17.87;6.58;;;;;;;4.05;35.79;101124.75;1806730;77;26219;-62
2022/01/21 09:08:53;;;;;;;12.35;5.45;;;;;;;4.34;36.00;101129.38;1807998;79;25694;-63
2022/01/21 09:11:21;;;;;;;14.73;6.05;;;;;;;4.53;34.03;101127.84;1807974;79;28193;-62
2022/01/21 09:13:52;;;;;;;14.53;6.17;;;;;;;4.77;34.58;101139.38;1807546;79;25743;-62
2022/01/21 09:16:20;;;;;;;11.73;5.92;;;;;;;5.21;35.44;101123.00;1807910;79;25697;-63
2022/01/21 09:18:51;;;;;;;18.12;6.78;;;;;;;5.80;35.89;101121.59;1808208;79;26048;-62
2022/01/21 09:21:25;;;;;;;10.00;5.33;;;;;;;6.34;34.84;101119.53;1806166;77;25857;-62
2022/01/21 09:23:54;;;;;;;14.58;6.40;;;;;;;6.68;34.25;101118.64;1807852;79;27444;-63
2022/01/21 09:26:23;;;;;;;14.35;6.42;;;;;;;6.96;33.02;101110.09;1767025;81;25672;-63
2022/01/21 09:28:53;;;;;;;10.72;5.67;;;;;;;7.20;32.02;101106.69;1778106;79;25878;-63
2022/01/21 09:31:23;;;;;;;17.62;7.35;;;;;;;7.43;30.77;101096.22;1759180;81;26109;-63
2022/01/21 09:33:50;;;;;;;8.85;5.17;;;;;;;7.87;34.17;101096.67;1759384;81;25758;-63
2022/01/21 09:36:20;;;;;;;12.80;5.47;;;;;;;8.24;30.71;101097.55;1759081;80;28220;-63
2022/01/21 09:38:51;;;;;;;12.03;5.17;;;;;;;8.31;29.64;101097.92;1773550;80;26439;-63
2022/01/21 09:41:19;;;;;;;9.80;4.67;;;;;;;8.43;29.81;101095.69;1796692;77;25731;-63
2022/01/21 09:43:50;;;;;;;8.73;4.42;;;;;;;8.60;29.64;101091.79;1810128;79;26089;-63
2022/01/21 09:46:17;;;;;;;11.10;5.42;;;;;;;8.48;27.44;101091.36;1778645;80;25763;-63
2022/01/21 09:49:06;;;;;;;14.50;5.67;;;;;;;8.57;28.09;101096.03;1847707;77;28220;-63
2022/01/21 09:51:22;;;;;;;10.93;5.35;;;;;;;8.98;28.81;101092.98;1845630;77;26296;-63
2022/01/21 09:53:49;;;;;;;13.40;5.87;;;;;;;9.27;27.50;101089.41;1810297;79;25809;-63
2022/01/21 09:56:17;;;;;;;7.37;3.95;;;;;;;9.55;28.54;101084.52;1810640;78;26140;-63
2022/01/21 09:58:48;;;;;;;7.60;4.05;;;;;;;10.08;29.17;101081.19;1810291;78;25668;-64
2022/01/21 10:01:19;;;;;;;11.88;4.85;;;;;;;10.49;27.54;101074.74;1809906;79;27531;-65
2022/01/21 10:03:48;;;;;;;8.90;4.80;;;;;;;10.69;27.22;101063.64;1777124;80;25801;-64
2022/01/21 10:06:16;;;;;;;8.23;4.00;;;;;;;11.09;26.28;101076.88;1778121;80;25778;-65
2022/01/21 10:08:44;;;;;;;11.43;4.45;;;;;;;11.12;26.34;101064.00;1777964;80;26108;-64
2022/01/21 10:11:12;;;;;;;7.40;4.22;;;;;;;10.91;24.47;101057.28;1778235;79;25877;-64
2022/01/21 10:13:39;;;;;;;9.93;4.12;;;;;;;10.46;24.36;101055.69;1778370;79;27525;-64
2022/01/21 10:16:08;;;;;;;9.95;3.77;;;;;;;10.33;23.98;101046.89;1777633;80;25674;-63
2022/01/21 10:18:36;;;;;;;11.70;3.47;;;;;;;10.44;24.34;101045.54;1778917;79;25870;-63
2022/01/21 10:21:13;;;;;;;6.58;3.85;;;;;;;10.39;23.69;101035.67;1778245;80;26818;-63
2022/01/21 10:23:43;;;;;;;12.00;4.10;;;;;;;10.38;24.42;101037.13;1778168;79;25739;-64
2022/01/21 10:26:14;;;;;;;9.03;3.77;;;;;;;10.50;23.87;101034.77;1778446;80;28283;-64
2022/01/21 10:28:48;;;;;;;12.43;4.53;;;;;;;10.36;23.44;101034.54;1761059;80;25644;-64
2022/01/21 10:31:19;;;;;;;11.50;4.40;;;;;;;10.16;23.51;101030.83;1812531;79;25639;-64
2022/01/21 10:33:52;;;;;;;9.55;3.87;;;;;;;10.44;24.20;101036.13;1814138;78;27016;-64
2022/01/21 10:36:28;;;;;;;;;;;;;;;10.60;23.59;101031.66;1817525;79;25878;-64
2022/01/21 10:39:19;;;;;;;8.00;3.45;;;;;;;11.06;24.19;101032.23;1816815;78;27435;-64
2022/01/21 10:41:43;;;;;;;8.13;3.00;;;;;;;11.12;22.68;101026.30;1828963;77;25739;-64
2022/01/21 10:44:14;;;;;;;10.03;3.42;;;;;;;11.00;22.51;101039.50;1808453;79;25701;-62
2022/01/21 10:47:07;;;;;;;8.38;3.30;;;;;;;11.16;23.26;101022.01;1780416;80;26841;-63
2022/01/21 10:49:43;;;;;;;8.68;3.15;;;;;;;11.34;23.22;101013.66;1808848;79;25731;-62
2022/01/21 10:52:09;;;;;;;9.57;3.20;;;;;;;11.49;21.81;101033.02;1780330;80;28240;-64
2022/01/21 10:54:43;;;;;;;13.10;3.58;;;;;;;11.49;21.81;101033.02;1848859;77;51871;-65
2022/01/21 10:57:17;;;;;;;9.05;3.22;;;;;;;11.85;22.93;101007.80;1808692;78;26415;-65
2022/01/21 11:00:08;;;;;;;7.60;3.22;;;;;;;12.09;22.72;101014.67;1776317;80;25990;-65
2022/01/21 11:02:52;;;;;;;11.78;4.03;;;;;;;12.05;21.67;101004.66;1808103;79;26388;-65
2022/01/21 11:05:37;;;;;;;17.95;10.50;;;;;;;12.18;21.72;101011.13;1779586;80;29619;-62
2022/01/21 11:08:01;;;;;;;10.98;4.10;;;;;;;12.08;21.80;100999.98;1806434;79;25737;-64
2022/01/21 11:10:42;;;;;;;9.65;4.62;;;;;;;12.19;21.34;101001.21;1787309;79;25781;-63
2022/01/21 11:13:20;;;;;;;13.28;4.15;;;;;;;12.55;22.89;101006.02;1794932;79;26109;-64
2022/01/21 11:15:54;;;;;;;8.38;3.80;;;;;;;13.18;21.21;100997.84;1795049;79;25692;-64
2022/01/21 11:18:28;;;;;;;18.00;3.62;;;;;;;13.27;20.43;100995.61;1776333;80;27485;-64
2022/01/21 11:21:09;;;;;;;12.15;3.47;;;;;;;12.95;19.72;100972.56;1806224;79;25868;-64
2022/01/21 11:23:37;;;;;;;11.18;3.45;;;;;;;12.93;20.84;100974.05;1803577;78;25466;-64
2022/01/21 11:26:09;;;;;;;12.20;3.40;;;;;;;12.68;20.33;100975.55;1758453;80;26089;-65
2022/01/21 11:28:48;;;;;;;7.28;3.40;;;;;;;12.68;20.32;100983.13;1794564;77;25836;-64
2022/01/21 11:31:22;;;;;;;7.15;3.25;;;;;;;12.55;19.74;100975.82;1819472;78;27453;-64
2022/01/21 11:33:49;;;;;;;10.15;3.85;;;;;;;12.08;19.88;100974.38;1859034;76;25828;-64
2022/01/21 11:36:18;;;;;;;10.53;3.60;;;;;;;12.10;21.06;100968.34;1859371;77;25748;-65
2022/01/21 11:38:48;;;;;;;9.65;4.00;;;;;;;12.27;20.92;100961.38;1850834;77;26160;-64
2022/01/21 11:41:16;;;;;;;4.83;2.70;;;;;;;12.34;20.97;100962.50;1835058;77;25783;-64
2022/01/21 11:43:51;;;;;;;10.75;3.42;;;;;;;12.10;20.18;100961.09;1764832;80;27498;-65
2022/01/21 11:48:57;;;;;;;6.65;2.67;;;;;;;11.38;20.24;100954.98;1764951;79;25713;-64
2022/01/21 11:51:34;;;;;;;11.93;2.60;;;;;;;11.12;20.25;100966.23;1748479;82;26127;-65
2022/01/21 11:54:03;;;;;;;15.80;3.15;;;;;;;10.53;20.39;100943.53;1747656;81;25663;-64
2022/01/21 11:56:48;;;;;;;10.70;3.00;;;;;;;10.27;20.95;100947.41;1748536;80;28453;-65
2022/01/21 12:01:52;;;;;;;13.22;3.22;;;;;;;9.20;21.60;100953.47;1748487;81;25728;-65
2022/01/21 12:04:40;;;;;;;4.90;2.30;;;;;;;8.79;22.21;100952.22;1748794;82;26705;-64
2022/01/21 12:07:35;;;;;;;7.72;2.72;;;;;;;8.28;22.59;100955.62;1748298;82;25711;-63
2022/01/21 12:10:07;;;;;;;8.25;3.15;;;;;;;7.93;23.52;100956.45;1748481;80;29732;-63
2022/01/21 12:13:06;;;;;;;9.90;2.65;;;;;;;7.80;24.00;100947.61;1746888;81;25813;-65
2022/01/21 12:18:40;;;;;;;15.10;4.22;;;;;;;7.47;24.74;100948.66;1748360;82;28291;-63
2022/01/21 12:20:58;;;;;;;11.55;3.30;;;;;;;7.13;24.94;100940.37;1750131;81;26337;-64
2022/01/21 12:23:27;;;;;;;10.78;3.22;;;;;;;6.84;25.05;100935.30;1750020;81;28846;-63
2022/01/21 12:26:19;;;;;;;11.60;4.00;;;;;;;6.62;25.61;100933.27;1781899;79;25817;-64
2022/01/21 12:29:00;;;;;;;14.83;3.10;;;;;;;6.34;25.32;100928.48;1806031;78;26471;-63
2022/01/21 12:31:54;;;;;;;12.47;3.30;;;;;;;6.04;25.85;100928.75;1796413;79;26270;-63
2022/01/21 12:34:24;;;;;;;14.38;3.35;;;;;;;5.89;26.16;100925.25;1796428;79;25520;-63
2022/01/21 12:36:57;;;;;;;10.28;3.42;;;;;;;5.77;26.21;100937.11;1796399;79;28134;-64